Somerset, Michigan
Current Conditions -  °F | °C
As of 9:34 AM on Saturday 22 Nov 2014 (Local Time) from KJYM Reporting Station
Haze Haze  
Wind Chill: 29°   Ceiling: 2000
Heat Index: 35°   Visibility: 1.7mi
Dew Point: 35°   Wind: 7mph
Humidity: 100%   Direction: 210°SSW
Pressure: 30.08"   Gusts: NA
Location:  42.05°N, 84.38°W
Report Text: KJYM 221434Z AUTO 21006KT 1 3/4SM BR OVC020 02/02 A3008 RMK AO2 T00150015
Loading
Personal Weather Stations






























Interactive Weather Map New forecast layout! Learn more

10-Day Weather Forecast

Advertisements
Track Severe Weather on mobile